Time,TemperatureF,DewpointF,PressureIn,WindDirection,WindDirectionDegrees,WindSpeedMPH,WindSpeedGustMPH,Humidity,HourlyPrecipIn,Conditions,Clouds,dailyrainin,SoftwareType,DateUTC
2013-09-17 00:02:00,65.2,63.0,30.16,NE,38,0.0,-999.0,93,-99.99,,,0.00,weatherlink.com 1.10,2013-09-17 04:02:00,
2013-09-17 00:17:00,64.6,63.0,30.16,NE,38,0.0,-999.0,93,-99.99,,,0.00,weatherlink.com 1.10,2013-09-17 04:17:00,
2013-09-17 00:32:00,64.4,62.0,30.16,NE,38,0.0,-999.0,93,-99.99,,,0.00,weatherlink.com 1.10,2013-09-17 04:32:00,
2013-09-17 00:47:00,64.3,62.0,30.16,NE,38,0.0,-999.0,93,-99.99,,,0.00,weatherlink.com 1.10,2013-09-17 04:47:00,
2013-09-17 01:03:00,64.1,62.0,30.16,NE,38,0.0,-999.0,93,-99.99,,,0.00,weatherlink.com 1.10,2013-09-17 05:03:00,
2013-09-17 01:35:00,63.9,62.0,30.15,NE,38,0.0,-999.0,93,-99.99,,,0.00,weatherlink.com 1.10,2013-09-17 05:35:00,
2013-09-17 01:47:00,63.9,62.0,30.15,NE,38,0.0,-999.0,93,-99.99,,,0.00,weatherlink.com 1.10,2013-09-17 05:47:00,
2013-09-17 02:02:00,64.1,62.0,30.16,NE,38,0.0,-999.0,93,-99.99,,,0.00,weatherlink.com 1.10,2013-09-17 06:02:00,
2013-09-17 02:17:00,64.0,62.0,30.15,NE,38,0.0,-999.0,92,-99.99,,,0.00,weatherlink.com 1.10,2013-09-17 06:17:00,
2013-09-17 02:32:00,64.0,62.0,30.15,NE,38,0.0,-999.0,93,-99.99,,,0.00,weatherlink.com 1.10,2013-09-17 06:32:00,
2013-09-17 02:47:00,63.7,62.0,30.15,NE,38,0.0,-999.0,93,-99.99,,,0.00,weatherlink.com 1.10,2013-09-17 06:47:00,
2013-09-17 03:02:00,63.3,61.0,30.15,NE,38,0.0,-999.0,93,-99.99,,,0.00,weatherlink.com 1.10,2013-09-17 07:02:00,
2013-09-17 03:17:00,63.4,61.0,30.15,NE,38,0.0,-999.0,93,-99.99,,,0.00,weatherlink.com 1.10,2013-09-17 07:17:00,
2013-09-17 03:32:00,63.3,61.0,30.15,NE,38,0.0,-999.0,93,-99.99,,,0.00,weatherlink.com 1.10,2013-09-17 07:32:00,
2013-09-17 03:47:00,63.2,61.0,30.14,NE,38,0.0,-999.0,93,-99.99,,,0.00,weatherlink.com 1.10,2013-09-17 07:47:00,
2013-09-17 04:02:00,63.6,62.0,30.15,NE,38,0.0,-999.0,93,-99.99,,,0.00,weatherlink.com 1.10,2013-09-17 08:02:00,
2013-09-17 04:17:00,63.6,62.0,30.15,NE,38,0.0,-999.0,93,-99.99,,,0.00,weatherlink.com 1.10,2013-09-17 08:17:00,
2013-09-17 04:32:00,63.4,61.0,30.15,NE,38,0.0,-999.0,93,-99.99,,,0.00,weatherlink.com 1.10,2013-09-17 08:32:00,
2013-09-17 04:47:00,63.4,61.0,30.14,NE,38,0.0,-999.0,93,-99.99,,,0.00,weatherlink.com 1.10,2013-09-17 08:47:00,
2013-09-17 05:02:00,63.5,62.0,30.14,NE,38,0.0,-999.0,93,-99.99,,,0.00,weatherlink.com 1.10,2013-09-17 09:02:00,
2013-09-17 05:17:00,63.6,62.0,30.14,NE,38,0.0,-999.0,93,-99.99,,,0.00,weatherlink.com 1.10,2013-09-17 09:17:00,
2013-09-17 05:32:00,64.0,62.0,30.14,NE,38,0.0,-999.0,93,-99.99,,,0.00,weatherlink.com 1.10,2013-09-17 09:32:00,
2013-09-17 05:47:00,63.6,62.0,30.14,NE,38,0.0,-999.0,93,-99.99,,,0.00,weatherlink.com 1.10,2013-09-17 09:47:00,
2013-09-17 06:02:00,63.7,62.0,30.15,NE,38,0.0,-999.0,93,-99.99,,,0.00,weatherlink.com 1.10,2013-09-17 10:02:00,
2013-09-17 06:18:00,63.5,62.0,30.16,NE,38,0.0,-999.0,93,-99.99,,,0.00,weatherlink.com 1.10,2013-09-17 10:18:00,
2013-09-17 06:33:00,63.5,62.0,30.16,NE,38,0.0,-999.0,93,-99.99,,,0.00,weatherlink.com 1.10,2013-09-17 10:33:00,
2013-09-17 06:48:00,63.6,62.0,30.16,NE,38,0.0,-999.0,93,-99.99,,,0.00,weatherlink.com 1.10,2013-09-17 10:48:00,
2013-09-17 07:03:00,63.7,62.0,30.16,NE,38,0.0,-999.0,93,-99.99,,,0.00,weatherlink.com 1.10,2013-09-17 11:03:00,
2013-09-17 07:18:00,63.6,62.0,30.16,NE,49,0.0,-999.0,93,-99.99,,,0.00,weatherlink.com 1.10,2013-09-17 11:18:00,
2013-09-17 07:33:00,63.6,62.0,30.17,NE,49,0.0,-999.0,93,-99.99,,,0.00,weatherlink.com 1.10,2013-09-17 11:33:00,
2013-09-17 07:48:00,63.5,62.0,30.17,NE,49,0.0,-999.0,93,-99.99,,,0.00,weatherlink.com 1.10,2013-09-17 11:48:00,
2013-09-17 08:03:00,64.0,62.0,30.18,NE,49,0.0,-999.0,93,-99.99,,,0.00,weatherlink.com 1.10,2013-09-17 12:03:00,
2013-09-17 08:18:00,65.0,63.0,30.18,NE,49,0.0,-999.0,92,-99.99,,,0.00,weatherlink.com 1.10,2013-09-17 12:18:00,
2013-09-17 08:34:00,66.4,64.0,30.19,NE,49,0.0,-999.0,91,-99.99,,,0.00,weatherlink.com 1.10,2013-09-17 12:34:00,
2013-09-17 08:51:00,67.5,65.0,30.19,ENE,65,0.0,-999.0,90,-99.99,,,0.00,weatherlink.com 1.10,2013-09-17 12:51:00,
2013-09-17 09:06:00,68.6,65.0,30.19,East,100,5.0,-999.0,89,-99.99,,,0.00,weatherlink.com 1.10,2013-09-17 13:06:00,
2013-09-17 09:21:00,69.3,65.0,30.19,ESE,117,6.0,-999.0,87,-99.99,,,0.00,weatherlink.com 1.10,2013-09-17 13:21:00,
2013-09-17 09:36:00,70.2,65.0,30.19,SE,140,8.0,-999.0,84,-99.99,,,0.00,weatherlink.com 1.10,2013-09-17 13:36:00,
2013-09-17 09:51:00,71.0,65.0,30.20,SE,140,2.0,-999.0,82,-99.99,,,0.00,weatherlink.com 1.10,2013-09-17 13:51:00,
2013-09-17 10:06:00,71.6,66.0,30.20,East,95,2.0,-999.0,82,-99.99,,,0.00,weatherlink.com 1.10,2013-09-17 14:06:00,
2013-09-17 10:21:00,72.0,66.0,30.20,ESE,117,2.0,-999.0,81,-99.99,,,0.00,weatherlink.com 1.10,2013-09-17 14:21:00,
2013-09-17 10:36:00,72.8,67.0,30.20,ESE,115,6.0,-999.0,81,-99.99,,,0.00,weatherlink.com 1.10,2013-09-17 14:36:00,
2013-09-17 10:51:00,73.5,67.0,30.20,ESE,112,2.0,-999.0,79,-99.99,,,0.00,weatherlink.com 1.10,2013-09-17 14:51:00,
2013-09-17 11:06:00,74.0,66.0,30.20,SE,124,7.0,-999.0,77,-99.99,,,0.00,weatherlink.com 1.10,2013-09-17 15:06:00,
2013-09-17 11:21:00,75.0,67.0,30.20,ESE,118,7.0,-999.0,76,-99.99,,,0.00,weatherlink.com 1.10,2013-09-17 15:21:00,
2013-09-17 11:36:00,75.9,67.0,30.21,ESE,117,8.0,-999.0,75,-99.99,,,0.00,weatherlink.com 1.10,2013-09-17 15:36:00,
2013-09-17 11:51:00,76.5,68.0,30.21,SSE,155,6.0,-999.0,75,-99.99,,,0.00,weatherlink.com 1.10,2013-09-17 15:51:00,
2013-09-17 12:06:00,76.9,68.0,30.20,South,191,6.0,-999.0,73,-99.99,,,0.00,weatherlink.com 1.10,2013-09-17 16:06:00,
2013-09-17 12:21:00,77.3,68.0,30.20,SE,142,2.0,-999.0,73,-99.99,,,0.00,weatherlink.com 1.10,2013-09-17 16:21:00,
2013-09-17 12:36:00,77.4,69.0,30.19,SSE,152,5.0,-999.0,74,-99.99,,,0.00,weatherlink.com 1.10,2013-09-17 16:36:00,
2013-09-17 12:51:00,78.6,69.0,30.19,ESE,123,12.0,-999.0,72,-99.99,,,0.00,weatherlink.com 1.10,2013-09-17 16:51:00,
2013-09-17 13:06:00,78.4,69.0,30.18,South,169,4.0,-999.0,72,-99.99,,,0.00,weatherlink.com 1.10,2013-09-17 17:06:00,
2013-09-17 13:21:00,78.8,69.0,30.18,South,182,1.0,-999.0,72,-99.99,,,0.00,weatherlink.com 1.10,2013-09-17 17:21:00,
2013-09-17 13:36:00,79.1,69.0,30.18,South,189,3.0,-999.0,71,-99.99,,,0.00,weatherlink.com 1.10,2013-09-17 17:36:00,
2013-09-17 13:51:00,79.7,69.0,30.17,South,177,9.0,-999.0,70,-99.99,,,0.00,weatherlink.com 1.10,2013-09-17 17:51:00,
2013-09-17 14:06:00,80.2,70.0,30.16,SE,146,5.0,-999.0,70,-99.99,,,0.00,weatherlink.com 1.10,2013-09-17 18:06:00,
2013-09-17 14:21:00,80.0,69.0,30.16,South,177,6.0,-999.0,70,-99.99,,,0.00,weatherlink.com 1.10,2013-09-17 18:21:00,
2013-09-17 14:36:00,80.3,70.0,30.15,ESE,111,5.0,-999.0,70,-99.99,,,0.00,weatherlink.com 1.10,2013-09-17 18:36:00,
2013-09-17 14:51:00,80.3,70.0,30.15,SSW,196,6.0,-999.0,70,-99.99,,,0.00,weatherlink.com 1.10,2013-09-17 18:51:00,
2013-09-17 15:06:00,81.0,70.0,30.14,East,91,4.0,-999.0,69,-99.99,,,0.00,weatherlink.com 1.10,2013-09-17 19:06:00,
2013-09-17 15:21:00,81.0,70.0,30.14,SE,146,5.0,-999.0,70,-99.99,,,0.00,weatherlink.com 1.10,2013-09-17 19:21:00,
2013-09-17 15:36:00,80.9,70.0,30.14,South,172,2.0,-999.0,70,-99.99,,,0.00,weatherlink.com 1.10,2013-09-17 19:36:00,
2013-09-17 15:51:00,80.3,70.0,30.13,ESE,118,4.0,-999.0,70,-99.99,,,0.00,weatherlink.com 1.10,2013-09-17 19:51:00,
2013-09-17 16:06:00,80.2,71.0,30.13,ESE,102,6.0,-999.0,73,-99.99,,,0.00,weatherlink.com 1.10,2013-09-17 20:06:00,
2013-09-17 16:21:00,81.1,71.0,30.12,SE,144,6.0,-999.0,71,-99.99,,,0.00,weatherlink.com 1.10,2013-09-17 20:21:00,
2013-09-17 16:36:00,80.9,71.0,30.12,SSW,192,6.0,-999.0,71,-99.99,,,0.00,weatherlink.com 1.10,2013-09-17 20:36:00,
2013-09-17 16:51:00,80.8,71.0,30.12,SE,131,7.0,-999.0,71,-99.99,,,0.00,weatherlink.com 1.10,2013-09-17 20:51:00,
2013-09-17 17:06:00,80.9,70.0,30.12,SE,136,2.0,-999.0,70,-99.99,,,0.00,weatherlink.com 1.10,2013-09-17 21:06:00,
2013-09-17 17:21:00,80.7,71.0,30.12,SSW,197,3.0,-999.0,72,-99.99,,,0.00,weatherlink.com 1.10,2013-09-17 21:21:00,
2013-09-17 17:36:00,80.9,71.0,30.12,SE,129,2.0,-999.0,71,-99.99,,,0.00,weatherlink.com 1.10,2013-09-17 21:36:00,
2013-09-17 17:51:00,80.4,70.0,30.12,SSE,157,5.0,-999.0,71,-99.99,,,0.00,weatherlink.com 1.10,2013-09-17 21:51:00,
2013-09-17 18:06:00,80.3,70.0,30.12,SSW,196,1.0,-999.0,71,-99.99,,,0.00,weatherlink.com 1.10,2013-09-17 22:06:00,
2013-09-17 18:21:00,79.5,71.0,30.12,South,186,2.0,-999.0,74,-99.99,,,0.00,weatherlink.com 1.10,2013-09-17 22:21:00,
2013-09-17 18:36:00,79.3,70.0,30.12,ESE,115,4.0,-999.0,74,-99.99,,,0.00,weatherlink.com 1.10,2013-09-17 22:36:00,
2013-09-17 18:51:00,78.3,71.0,30.12,SE,128,4.0,-999.0,77,-99.99,,,0.00,weatherlink.com 1.10,2013-09-17 22:51:00,
2013-09-17 19:21:00,76.6,70.0,30.12,SE,132,1.0,-999.0,80,-99.99,,,0.00,weatherlink.com 1.10,2013-09-17 23:21:00,
2013-09-17 19:36:00,75.5,69.0,30.11,SE,135,2.0,-999.0,81,-99.99,,,0.00,weatherlink.com 1.10,2013-09-17 23:36:00,
2013-09-17 19:52:00,74.8,69.0,30.11,SE,129,6.0,-999.0,82,-99.99,,,0.00,weatherlink.com 1.10,2013-09-17 23:52:00,
2013-09-17 20:07:00,74.3,69.0,30.12,SE,135,0.0,-999.0,83,-99.99,,,0.00,weatherlink.com 1.10,2013-09-18 00:07:00,
2013-09-17 20:22:00,73.8,69.0,30.12,SSE,149,0.0,-999.0,84,-99.99,,,0.00,weatherlink.com 1.10,2013-09-18 00:22:00,
2013-09-17 20:37:00,73.5,68.0,30.13,SE,136,5.0,-999.0,84,-99.99,,,0.00,weatherlink.com 1.10,2013-09-18 00:37:00,
2013-09-17 20:52:00,73.4,68.0,30.13,SSE,151,2.0,-999.0,84,-99.99,,,0.00,weatherlink.com 1.10,2013-09-18 00:52:00,
2013-09-17 21:07:00,73.2,68.0,30.13,SE,145,5.0,-999.0,84,-99.99,,,0.00,weatherlink.com 1.10,2013-09-18 01:07:00,
2013-09-17 21:22:00,72.9,68.0,30.14,SSE,156,0.0,-999.0,84,-99.99,,,0.00,weatherlink.com 1.10,2013-09-18 01:22:00,
2013-09-17 21:37:00,72.6,68.0,30.14,South,186,1.0,-999.0,84,-99.99,,,0.00,weatherlink.com 1.10,2013-09-18 01:37:00,
2013-09-17 21:52:00,72.3,68.0,30.15,SSW,192,0.0,-999.0,85,-99.99,,,0.00,weatherlink.com 1.10,2013-09-18 01:52:00,
2013-09-17 22:07:00,72.3,67.0,30.16,SSE,157,2.0,-999.0,84,-99.99,,,0.00,weatherlink.com 1.10,2013-09-18 02:07:00,
2013-09-17 22:22:00,72.2,67.0,30.16,SSE,154,4.0,-999.0,84,-99.99,,,0.00,weatherlink.com 1.10,2013-09-18 02:22:00,
2013-09-17 22:37:00,71.9,67.0,30.17,South,187,2.0,-999.0,84,-99.99,,,0.00,weatherlink.com 1.10,2013-09-18 02:37:00,
2013-09-17 22:52:00,71.8,67.0,30.18,SSE,153,2.0,-999.0,84,-99.99,,,0.00,weatherlink.com 1.10,2013-09-18 02:52:00,
2013-09-17 23:07:00,71.4,66.0,30.18,SSE,163,2.0,-999.0,84,-99.99,,,0.00,weatherlink.com 1.10,2013-09-18 03:07:00,
2013-09-17 23:22:00,71.1,66.0,30.18,ENE,67,5.0,-999.0,85,-99.99,,,0.00,weatherlink.com 1.10,2013-09-18 03:22:00,
2013-09-17 23:37:00,70.8,66.0,30.18,SE,142,0.0,-999.0,85,-99.99,,,0.00,weatherlink.com 1.10,2013-09-18 03:37:00,
2013-09-17 23:52:00,70.4,66.0,30.18,SSE,166,1.0,-999.0,85,-99.99,,,0.00,weatherlink.com 1.10,2013-09-18 03:52:00,